sensor_id;sensor_type;location;lat;lon;timestamp;pressure;altitude;pressure_sealevel;temperature;humidity
5350;BME280;2697;42.144;24.794;2023-03-22T00:01:20;-10753.97;;;10.95;100.00
5350;BME280;2697;42.144;24.794;2023-03-22T00:03:47;-11422.44;;;10.89;100.00
5350;BME280;2697;42.144;24.794;2023-03-22T00:06:12;-11756.03;;;10.83;100.00
5350;BME280;2697;42.144;24.794;2023-03-22T00:08:38;-13092.69;;;10.75;100.00
5350;BME280;2697;42.144;24.794;2023-03-22T00:11:04;-14428.91;;;10.69;100.00
5350;BME280;2697;42.144;24.794;2023-03-22T00:13:32;-15096.88;;;10.66;100.00
5350;BME280;2697;42.144;24.794;2023-03-22T00:15:58;-15763.72;;;10.60;100.00
5350;BME280;2697;42.144;24.794;2023-03-22T00:18:24;-16430.91;;;10.55;100.00
5350;BME280;2697;42.144;24.794;2023-03-22T00:20:52;-17767.16;;;10.56;100.00
5350;BME280;2697;42.144;24.794;2023-03-22T00:23:17;-18102.34;;;10.61;100.00
5350;BME280;2697;42.144;24.794;2023-03-22T00:25:43;-18102.75;;;10.63;100.00
5350;BME280;2697;42.144;24.794;2023-03-22T00:28:10;-17766.19;;;10.53;100.00
5350;BME280;2697;42.144;24.794;2023-03-22T00:30:35;-17767.03;;;10.56;100.00
5350;BME280;2697;42.144;24.794;2023-03-22T00:33:01;-17766.75;;;10.55;100.00
5350;BME280;2697;42.144;24.794;2023-03-22T00:35:26;-17766.34;;;10.53;100.00
5350;BME280;2697;42.144;24.794;2023-03-22T00:37:52;-18433.28;;;10.50;100.00
5350;BME280;2697;42.144;24.794;2023-03-22T00:40:17;-18766.53;;;10.48;100.00
5350;BME280;2697;42.144;24.794;2023-03-22T00:42:43;-19101.50;;;10.52;100.00
5350;BME280;2697;42.144;24.794;2023-03-22T00:45:10;-19103.69;;;10.60;100.00
5350;BME280;2697;42.144;24.794;2023-03-22T00:47:35;-19104.00;;;10.61;100.00
5350;BME280;2697;42.144;24.794;2023-03-22T00:50:02;-19102.69;;;10.56;100.00
5350;BME280;2697;42.144;24.794;2023-03-22T00:52:27;-19100.91;;;10.50;100.00
5350;BME280;2697;42.144;24.794;2023-03-22T00:54:54;-19436.47;;;10.56;100.00
5350;BME280;2697;42.144;24.794;2023-03-22T00:57:20;-19102.97;;;10.57;100.00
5350;BME280;2697;42.144;24.794;2023-03-22T00:59:45;-19102.97;;;10.57;100.00
5350;BME280;2697;42.144;24.794;2023-03-22T01:02:11;-18769.13;;;10.57;100.00
5350;BME280;2697;42.144;24.794;2023-03-22T01:04:41;-17766.47;;;10.54;100.00
5350;BME280;2697;42.144;24.794;2023-03-22T01:07:15;-17097.13;;;10.48;100.00
5350;BME280;2697;42.144;24.794;2023-03-22T01:09:49;-16428.03;;;10.44;100.00
5350;BME280;2697;42.144;24.794;2023-03-22T01:12:17;-16094.66;;;10.46;100.00
5350;BME280;2697;42.144;24.794;2023-03-22T01:14:43;-15090.38;;;10.37;100.00
5350;BME280;2697;42.144;24.794;2023-03-22T01:17:09;-15424.66;;;10.38;100.00
5350;BME280;2697;42.144;24.794;2023-03-22T01:19:35;-14754.72;;;10.30;100.00
5350;BME280;2697;42.144;24.794;2023-03-22T01:22:01;-13751.59;;;10.26;100.00
5350;BME280;2697;42.144;24.794;2023-03-22T01:24:27;-13084.06;;;10.30;100.00
5350;BME280;2697;42.144;24.794;2023-03-22T01:26:52;-12749.09;;;10.26;100.00
5350;BME280;2697;42.144;24.794;2023-03-22T01:29:18;-12414.94;;;10.26;100.00
5350;BME280;2697;42.144;24.794;2023-03-22T01:31:43;-12078.44;;;10.14;100.00
5350;BME280;2697;42.144;24.794;2023-03-22T01:34:10;-11076.84;;;10.21;100.00
5350;BME280;2697;42.144;24.794;2023-03-22T01:36:35;-10407.28;;;10.15;100.00
5350;BME280;2697;42.144;24.794;2023-03-22T01:39:01;-9737.47;;;10.08;100.00
5350;BME280;2697;42.144;24.794;2023-03-22T01:41:28;-10404.78;;;9.98;100.00
5350;BME280;2697;42.144;24.794;2023-03-22T01:44:14;-10407.81;;;10.19;100.00
5350;BME280;2697;42.144;24.794;2023-03-22T01:46:41;-10405.63;;;10.04;100.00
5350;BME280;2697;42.144;24.794;2023-03-22T01:49:14;-11742.50;;;10.04;100.00
5350;BME280;2697;42.144;24.794;2023-03-22T01:51:43;-12410.16;;;10.00;100.00
5350;BME280;2697;42.144;24.794;2023-03-22T01:54:15;-13412.41;;;10.00;100.00
5350;BME280;2697;42.144;24.794;2023-03-22T01:56:43;-14414.97;;;10.04;100.00
5350;BME280;2697;42.144;24.794;2023-03-22T01:59:12;-14413.03;;;9.94;100.00
5350;BME280;2697;42.144;24.794;2023-03-22T02:01:38;-13746.81;;;10.03;100.00
5350;BME280;2697;42.144;24.794;2023-03-22T02:04:07;-13745.59;;;9.96;100.00
5350;BME280;2697;42.144;24.794;2023-03-22T02:06:34;-13744.97;;;9.93;100.00
5350;BME280;2697;42.144;24.794;2023-03-22T02:09:07;-14077.19;;;9.85;100.00
5350;BME280;2697;42.144;24.794;2023-03-22T02:11:39;-14411.38;;;9.87;100.00
5350;BME280;2697;42.144;24.794;2023-03-22T02:41:39;-17076.31;;;9.67;100.00
5350;BME280;2697;42.144;24.794;2023-03-22T02:47:03;-16408.47;;;9.64;100.00
5350;BME280;2697;42.144;24.794;2023-03-22T02:50:00;-17076.06;;;9.66;100.00
5350;BME280;2697;42.144;24.794;2023-03-22T02:52:43;-16744.84;;;9.76;100.00
5350;BME280;2697;42.144;24.794;2023-03-22T02:55:23;-16078.09;;;9.78;100.00
5350;BME280;2697;42.144;24.794;2023-03-22T03:00:30;-15741.91;;;9.67;100.00
5350;BME280;2697;42.144;24.794;2023-03-22T03:03:00;-15749.09;;;9.97;100.00
5350;BME280;2697;42.144;24.794;2023-03-22T03:05:40;-13743.09;;;9.84;100.00
5350;BME280;2697;42.144;24.794;2023-03-22T03:08:09;-14078.06;;;9.89;100.00
5350;BME280;2697;42.144;24.794;2023-03-22T03:10:38;-13412.81;;;10.03;100.00
5350;BME280;2697;42.144;24.794;2023-03-22T03:13:04;-12743.19;;;9.94;100.00
5350;BME280;2697;42.144;24.794;2023-03-22T03:15:29;-13409.78;;;9.87;100.00
5350;BME280;2697;42.144;24.794;2023-03-22T03:18:08;-13743.72;;;9.87;100.00
5350;BME280;2697;42.144;24.794;2023-03-22T03:20:55;-13411.41;;;9.95;100.00
5350;BME280;2697;42.144;24.794;2023-03-22T03:23:46;-12743.94;;;9.98;100.00
5350;BME280;2697;42.144;24.794;2023-03-22T03:28:58;-13075.06;;;9.83;100.00
5350;BME280;2697;42.144;24.794;2023-03-22T03:37:11;-14412.16;;;9.90;100.00
5350;BME280;2697;42.144;24.794;2023-03-22T03:39:43;-16077.47;;;9.75;100.00
5350;BME280;2697;42.144;24.794;2023-03-22T03:42:13;-18414.81;;;9.84;100.00
5350;BME280;2697;42.144;24.794;2023-03-22T03:44:40;-18083.81;;;9.93;100.00
5350;BME280;2697;42.144;24.794;2023-03-22T03:47:07;-17418.63;;;10.01;100.00
5350;BME280;2697;42.144;24.794;2023-03-22T03:49:33;-17083.38;;;9.95;100.00
5350;BME280;2697;42.144;24.794;2023-03-22T03:51:59;-17415.56;;;9.89;100.00
5350;BME280;2697;42.144;24.794;2023-03-22T03:54:25;-18750.19;;;9.91;100.00
5350;BME280;2697;42.144;24.794;2023-03-22T03:56:50;-19083.81;;;9.91;100.00
5350;BME280;2697;42.144;24.794;2023-03-22T03:59:17;-19080.00;;;9.78;100.00
5350;BME280;2697;42.144;24.794;2023-03-22T04:01:43;-19082.50;;;9.87;100.00
5350;BME280;2697;42.144;24.794;2023-03-22T04:04:20;-19414.88;;;9.83;100.00
5350;BME280;2697;42.144;24.794;2023-03-22T04:06:58;-19415.94;;;9.80;100.00
5350;BME280;2697;42.144;24.794;2023-03-22T04:09:25;-19414.41;;;9.75;100.00
5350;BME280;2697;42.144;24.794;2023-03-22T04:11:52;-19412.31;;;9.68;100.00
5350;BME280;2697;42.144;24.794;2023-03-22T04:14:18;-19414.56;;;9.76;100.00
5350;BME280;2697;42.144;24.794;2023-03-22T04:16:43;-19414.88;;;9.77;100.00
5350;BME280;2697;42.144;24.794;2023-03-22T04:19:09;-19409.47;;;9.58;100.00
5350;BME280;2697;42.144;24.794;2023-03-22T04:21:34;-19411.13;;;9.64;100.00
5350;BME280;2697;42.144;24.794;2023-03-22T04:24:00;-19411.56;;;9.65;100.00
5350;BME280;2697;42.144;24.794;2023-03-22T04:26:25;-19410.06;;;9.60;100.00
5350;BME280;2697;42.144;24.794;2023-03-22T04:28:51;-19409.03;;;9.57;100.00
5350;BME280;2697;42.144;24.794;2023-03-22T04:31:16;-19408.56;;;9.55;100.00
5350;BME280;2697;42.144;24.794;2023-03-22T04:33:42;-19411.56;;;9.65;100.00
5350;BME280;2697;42.144;24.794;2023-03-22T04:36:11;-19407.53;;;9.52;100.00
5350;BME280;2697;42.144;24.794;2023-03-22T04:38:40;-19408.41;;;9.55;100.00
5350;BME280;2697;42.144;24.794;2023-03-22T04:41:06;-19410.22;;;9.61;100.00
5350;BME280;2697;42.144;24.794;2023-03-22T04:43:31;-19408.72;;;9.56;100.00
5350;BME280;2697;42.144;24.794;2023-03-22T04:46:00;-19410.97;;;9.63;100.00
5350;BME280;2697;42.144;24.794;2023-03-22T04:48:26;-19413.53;;;9.72;100.00
5350;BME280;2697;42.144;24.794;2023-03-22T04:50:52;-19414.41;;;9.75;100.00
5350;BME280;2697;42.144;24.794;2023-03-22T04:53:17;-19409.63;;;9.59;100.00
5350;BME280;2697;42.144;24.794;2023-03-22T04:55:43;-19408.13;;;9.54;100.00
5350;BME280;2697;42.144;24.794;2023-03-22T04:58:10;-19409.16;;;9.57;100.00
5350;BME280;2697;42.144;24.794;2023-03-22T05:00:36;-19409.03;;;9.57;100.00
5350;BME280;2697;42.144;24.794;2023-03-22T05:03:02;-19414.56;;;9.76;100.00
5350;BME280;2697;42.144;24.794;2023-03-22T05:05:28;-19415.63;;;9.79;100.00
5350;BME280;2697;42.144;24.794;2023-03-22T05:07:54;-19419.22;;;9.91;100.00
5350;BME280;2697;42.144;24.794;2023-03-22T05:10:20;-19420.13;;;9.94;100.00
5350;BME280;2697;42.144;24.794;2023-03-22T05:12:45;-19420.28;;;9.95;100.00
5350;BME280;2697;42.144;24.794;2023-03-22T05:15:11;-19421.47;;;9.99;100.00
5350;BME280;2697;42.144;24.794;2023-03-22T05:17:36;-19421.78;;;10.00;100.00
5350;BME280;2697;42.144;24.794;2023-03-22T05:20:02;-19422.97;;;10.04;100.00
5350;BME280;2697;42.144;24.794;2023-03-22T05:22:33;-19421.94;;;10.00;100.00
5350;BME280;2697;42.144;24.794;2023-03-22T05:25:02;-19427.63;;;10.20;100.00
5350;BME280;2697;42.144;24.794;2023-03-22T05:27:27;-19426.72;;;10.17;100.00
5350;BME280;2697;42.144;24.794;2023-03-22T05:29:58;-19425.69;;;10.13;100.00
5350;BME280;2697;42.144;24.794;2023-03-22T05:32:24;-19425.81;;;10.14;100.00
5350;BME280;2697;42.144;24.794;2023-03-22T05:34:49;-19425.53;;;10.13;100.00
5350;BME280;2697;42.144;24.794;2023-03-22T05:37:15;-19427.94;;;10.21;100.00
5350;BME280;2697;42.144;24.794;2023-03-22T05:39:41;-19431.84;;;10.34;100.00
5350;BME280;2697;42.144;24.794;2023-03-22T05:42:06;-19434.53;;;10.43;100.00
5350;BME280;2697;42.144;24.794;2023-03-22T05:44:32;-19430.63;;;10.30;100.00
5350;BME280;2697;42.144;24.794;2023-03-22T05:46:57;-19431.53;;;10.33;100.00
5350;BME280;2697;42.144;24.794;2023-03-22T05:49:22;-19432.59;;;10.37;100.00
5350;BME280;2697;42.144;24.794;2023-03-22T05:51:48;-19433.94;;;10.41;100.00
5350;BME280;2697;42.144;24.794;2023-03-22T05:54:14;-19435.13;;;10.45;100.00
5350;BME280;2697;42.144;24.794;2023-03-22T05:56:40;-19441.13;;;10.66;100.00
5350;BME280;2697;42.144;24.794;2023-03-22T05:59:05;-19435.28;;;10.46;100.00
5350;BME280;2697;42.144;24.794;2023-03-22T06:01:31;-19432.59;;;10.37;100.00
5350;BME280;2697;42.144;24.794;2023-03-22T06:03:57;-19423.13;;;10.05;100.00
5350;BME280;2697;42.144;24.794;2023-03-22T06:06:23;-19423.72;;;10.07;100.00
5350;BME280;2697;42.144;24.794;2023-03-22T06:08:48;-19421.31;;;9.98;100.00
5350;BME280;2697;42.144;24.794;2023-03-22T06:11:13;-19427.34;;;10.19;100.00
5350;BME280;2697;42.144;24.794;2023-03-22T06:13:39;-19431.84;;;10.34;100.00
5350;BME280;2697;42.144;24.794;2023-03-22T06:16:05;-19427.63;;;10.20;100.00
5350;BME280;2697;42.144;24.794;2023-03-22T06:18:30;-19428.22;;;10.22;100.00
5350;BME280;2697;42.144;24.794;2023-03-22T06:20:57;-19429.00;;;10.24;100.00
5350;BME280;2697;42.144;24.794;2023-03-22T06:23:22;-19429.13;;;10.25;100.00
5350;BME280;2697;42.144;24.794;2023-03-22T06:25:47;-19424.19;;;10.08;100.00
5350;BME280;2697;42.144;24.794;2023-03-22T06:28:13;-19430.19;;;10.28;100.00
5350;BME280;2697;42.144;24.794;2023-03-22T06:30:38;-19429.00;;;10.24;100.00
5350;BME280;2697;42.144;24.794;2023-03-22T06:33:04;-19430.50;;;10.30;100.00
5350;BME280;2697;42.144;24.794;2023-03-22T06:35:33;-19428.22;;;10.22;100.00
5350;BME280;2697;42.144;24.794;2023-03-22T06:37:59;-19424.94;;;10.11;100.00
5350;BME280;2697;42.144;24.794;2023-03-22T06:40:24;-19425.97;;;10.14;100.00
5350;BME280;2697;42.144;24.794;2023-03-22T06:42:50;-19430.34;;;10.29;100.00
5350;BME280;2697;42.144;24.794;2023-03-22T06:45:15;-19432.44;;;10.36;100.00
5350;BME280;2697;42.144;24.794;2023-03-22T06:47:42;-19435.44;;;10.46;100.00
5350;BME280;2697;42.144;24.794;2023-03-22T06:50:08;-19437.53;;;10.53;100.00
5350;BME280;2697;42.144;24.794;2023-03-22T06:52:34;-19436.03;;;10.48;100.00
5350;BME280;2697;42.144;24.794;2023-03-22T06:55:00;-19437.84;;;10.54;100.00
5350;BME280;2697;42.144;24.794;2023-03-22T06:57:25;-19437.53;;;10.53;100.00
5350;BME280;2697;42.144;24.794;2023-03-22T06:59:50;-19440.38;;;10.63;100.00
5350;BME280;2697;42.144;24.794;2023-03-22T07:02:16;-19443.53;;;10.74;100.00
5350;BME280;2697;42.144;24.794;2023-03-22T07:04:41;-19441.28;;;10.66;100.00
5350;BME280;2697;42.144;24.794;2023-03-22T07:07:07;-19443.53;;;10.74;100.00
5350;BME280;2697;42.144;24.794;2023-03-22T07:09:32;-19443.84;;;10.75;100.00
5350;BME280;2697;42.144;24.794;2023-03-22T07:11:57;-19445.34;;;10.80;100.00
5350;BME280;2697;42.144;24.794;2023-03-22T07:14:23;-19449.53;;;10.94;100.00
5350;BME280;2697;42.144;24.794;2023-03-22T07:16:48;-19450.75;;;10.98;100.00
5350;BME280;2697;42.144;24.794;2023-03-22T07:19:14;-19447.75;;;10.88;100.00
5350;BME280;2697;42.144;24.794;2023-03-22T07:21:39;-19453.00;;;11.06;100.00
5350;BME280;2697;42.144;24.794;2023-03-22T07:24:05;-19457.63;;;11.22;100.00
5350;BME280;2697;42.144;24.794;2023-03-22T07:26:33;-19452.84;;;11.05;100.00
5350;BME280;2697;42.144;24.794;2023-03-22T07:28:58;-19458.69;;;11.25;100.00
5350;BME280;2697;42.144;24.794;2023-03-22T07:31:23;-19461.22;;;11.34;100.00
5350;BME280;2697;42.144;24.794;2023-03-22T07:33:49;-19457.34;;;11.21;100.00
5350;BME280;2697;42.144;24.794;2023-03-22T07:36:14;-19448.19;;;10.90;100.00
5350;BME280;2697;42.144;24.794;2023-03-22T07:38:40;-19446.69;;;10.84;100.00
5350;BME280;2697;42.144;24.794;2023-03-22T07:41:06;-19452.84;;;11.05;100.00
5350;BME280;2697;42.144;24.794;2023-03-22T07:43:31;-19454.34;;;11.10;100.00
5350;BME280;2697;42.144;24.794;2023-03-22T07:45:56;-19446.25;;;10.83;100.00
5350;BME280;2697;42.144;24.794;2023-03-22T07:48:22;-19442.78;;;10.71;100.00
5350;BME280;2697;42.144;24.794;2023-03-22T07:50:48;-19441.13;;;10.66;100.00
5350;BME280;2697;42.144;24.794;2023-03-22T07:53:13;-19439.78;;;10.61;100.00
5350;BME280;2697;42.144;24.794;2023-03-22T07:55:39;-19442.50;;;10.70;100.00
5350;BME280;2697;42.144;24.794;2023-03-22T07:58:06;-19442.50;;;10.70;100.00
5350;BME280;2697;42.144;24.794;2023-03-22T08:00:32;-19441.75;;;10.68;100.00
5350;BME280;2697;42.144;24.794;2023-03-22T08:02:58;-19443.25;;;10.73;100.00
5350;BME280;2697;42.144;24.794;2023-03-22T08:05:24;-19444.75;;;10.78;100.00
5350;BME280;2697;42.144;24.794;2023-03-22T08:07:49;-19443.84;;;10.75;100.00
5350;BME280;2697;42.144;24.794;2023-03-22T08:10:16;-19443.84;;;10.75;100.00
5350;BME280;2697;42.144;24.794;2023-03-22T08:12:42;-19438.28;;;10.56;100.00
5350;BME280;2697;42.144;24.794;2023-03-22T08:15:08;-19439.63;;;10.61;100.00
5350;BME280;2697;42.144;24.794;2023-03-22T08:17:34;-19440.53;;;10.64;100.00
5350;BME280;2697;42.144;24.794;2023-03-22T08:20:00;-19438.44;;;10.56;100.00
5350;BME280;2697;42.144;24.794;2023-03-22T08:22:32;-19439.63;;;10.61;100.00
5350;BME280;2697;42.144;24.794;2023-03-22T08:24:57;-19441.13;;;10.66;100.00
5350;BME280;2697;42.144;24.794;2023-03-22T08:27:23;-19438.44;;;10.56;100.00
5350;BME280;2697;42.144;24.794;2023-03-22T08:29:48;-19439.63;;;10.61;100.00
5350;BME280;2697;42.144;24.794;2023-03-22T08:32:14;-19439.34;;;10.60;100.00
5350;BME280;2697;42.144;24.794;2023-03-22T08:34:41;-19444.44;;;10.77;100.00
5350;BME280;2697;42.144;24.794;2023-03-22T08:37:08;-19448.63;;;10.91;100.00
5350;BME280;2697;42.144;24.794;2023-03-22T08:39:34;-19455.97;;;11.16;100.00
5350;BME280;2697;42.144;24.794;2023-03-22T08:42:00;-19468.13;;;11.57;100.00
5350;BME280;2697;42.144;24.794;2023-03-22T08:44:26;-19473.22;;;11.75;100.00
5350;BME280;2697;42.144;24.794;2023-03-22T08:46:52;-19473.38;;;11.75;100.00
5350;BME280;2697;42.144;24.794;2023-03-22T08:49:17;-19475.94;;;11.84;100.00
5350;BME280;2697;42.144;24.794;2023-03-22T08:51:42;-19466.34;;;11.51;100.00
5350;BME280;2697;42.144;24.794;2023-03-22T08:54:08;-19476.09;;;11.84;100.00
5350;BME280;2697;42.144;24.794;2023-03-22T08:56:34;-19484.34;;;12.12;100.00
5350;BME280;2697;42.144;24.794;2023-03-22T08:59:06;-19490.63;;;12.34;100.00
5350;BME280;2697;42.144;24.794;2023-03-22T09:01:34;-19489.13;;;12.29;100.00
5350;BME280;2697;42.144;24.794;2023-03-22T09:04:00;-19489.88;;;12.31;100.00
5350;BME280;2697;42.144;24.794;2023-03-22T09:06:26;-19491.06;;;12.35;100.00
5350;BME280;2697;42.144;24.794;2023-03-22T09:08:52;-19498.88;;;12.62;100.00
5350;BME280;2697;42.144;24.794;2023-03-22T09:11:18;-19497.53;;;12.57;100.00
5350;BME280;2697;42.144;24.794;2023-03-22T09:13:45;-19501.13;;;12.69;100.00
5350;BME280;2697;42.144;24.794;2023-03-22T09:16:10;-19494.22;;;12.46;100.00
5350;BME280;2697;42.144;24.794;2023-03-22T09:18:36;-19498.41;;;12.60;100.00
5350;BME280;2697;42.144;24.794;2023-03-22T09:21:03;-19507.56;;;12.91;100.00
5350;BME280;2697;42.144;24.794;2023-03-22T09:23:28;-19506.22;;;12.87;100.00
5350;BME280;2697;42.144;24.794;2023-03-22T09:25:58;-19507.41;;;12.91;100.00
5350;BME280;2697;42.144;24.794;2023-03-22T09:28:24;-17852.66;;;13.76;100.00
5350;BME280;2697;42.144;24.794;2023-03-22T09:30:50;-12141.47;;;13.73;100.00
5350;BME280;2697;42.144;24.794;2023-03-22T09:33:15;-10462.50;;;13.87;100.00
5350;BME280;2697;42.144;24.794;2023-03-22T09:35:41;-6761.41;;;13.95;100.00
5350;BME280;2697;42.144;24.794;2023-03-22T09:38:07;-3730.00;;;14.08;100.00
5350;BME280;2697;42.144;24.794;2023-03-22T09:40:34;-3056.09;;;14.19;100.00
5350;BME280;2697;42.144;24.794;2023-03-22T09:43:03;-1707.09;;;14.19;100.00
5350;BME280;2697;42.144;24.794;2023-03-22T09:45:45;-3731.47;;;14.45;100.00
5350;BME280;2697;42.144;24.794;2023-03-22T09:50:50;8431.38;;;14.56;100.00
5350;BME280;2697;42.144;24.794;2023-03-22T09:53:16;15207.88;;;14.65;100.00
5350;BME280;2697;42.144;24.794;2023-03-22T10:00:59;37661.91;;;14.85;100.00
5350;BME280;2697;42.144;24.794;2023-03-22T10:06:04;93331.56;;;14.99;100.00
5350;BME280;2697;42.144;24.794;2023-03-22T10:11:26;67840.63;;;15.26;100.00
5350;BME280;2697;42.144;24.794;2023-03-22T10:16:35;149750.66;;;15.33;100.00
5350;BME280;2697;42.144;24.794;2023-03-22T10:19:07;153193.16;;;15.34;100.00
5350;BME280;2697;42.144;24.794;2023-03-22T10:21:37;88957.63;;;15.81;100.00
5350;BME280;2697;42.144;24.794;2023-03-22T10:24:16;130048.03;;;16.03;100.00
5350;BME280;2697;42.144;24.794;2023-03-22T10:26:46;141659.38;;;16.27;100.00
5350;BME280;2697;42.144;24.794;2023-03-22T10:29:35;156744.41;;;16.17;100.00
5350;BME280;2697;42.144;24.794;2023-03-22T10:32:30;156815.81;;;16.44;100.00
5350;BME280;2697;42.144;24.794;2023-03-22T10:34:58;156774.84;;;16.29;100.00
5350;BME280;2697;42.144;24.794;2023-03-22T10:37:35;156581.75;;;15.54;100.00
5350;BME280;2697;42.144;24.794;2023-03-22T10:40:04;156687.56;;;15.95;100.00
5350;BME280;2697;42.144;24.794;2023-03-22T10:42:35;156774.84;;;16.29;100.00
5350;BME280;2697;42.144;24.794;2023-03-22T10:45:13;156776.16;;;16.29;100.00
5350;BME280;2697;42.144;24.794;2023-03-22T10:50:29;156867.41;;;16.64;100.00
5350;BME280;2697;42.144;24.794;2023-03-22T10:55:40;156866.09;;;16.64;100.00
5350;BME280;2697;42.144;24.794;2023-03-22T11:00:46;156917.72;;;16.84;100.00
5350;BME280;2697;42.144;24.794;2023-03-22T11:06:10;156830.38;;;16.50;100.00
5350;BME280;2697;42.144;24.794;2023-03-22T11:08:48;156892.59;;;16.74;100.00
5350;BME280;2697;42.144;24.794;2023-03-22T11:11:24;157007.72;;;17.18;100.00
5350;BME280;2697;42.144;24.794;2023-03-22T11:16:18;157058.00;;;17.37;100.00
5350;BME280;2697;42.144;24.794;2023-03-22T11:18:44;157222.25;;;18.01;100.00
5350;BME280;2697;42.144;24.794;2023-03-22T11:21:11;157063.28;;;17.39;100.00
5350;BME280;2697;42.144;24.794;2023-03-22T11:23:41;156985.22;;;17.09;100.00
5350;BME280;2697;42.144;24.794;2023-03-22T11:26:12;157175.88;;;17.83;100.00
5350;BME280;2697;42.144;24.794;2023-03-22T11:28:44;157148.09;;;17.72;100.00
5350;BME280;2697;42.144;24.794;2023-03-22T11:31:13;157081.84;;;17.47;100.00
5350;BME280;2697;42.144;24.794;2023-03-22T11:33:59;157002.44;;;17.16;100.00
5350;BME280;2697;42.144;24.794;2023-03-22T11:36:26;156997.16;;;17.14;100.00
5350;BME280;2697;42.144;24.794;2023-03-22T11:39:00;157042.16;;;17.31;97.70
5350;BME280;2697;42.144;24.794;2023-03-22T11:41:28;157050.09;;;17.34;96.51
5350;BME280;2697;42.144;24.794;2023-03-22T11:43:57;157092.44;;;17.51;92.90
5350;BME280;2697;42.144;24.794;2023-03-22T11:46:24;157166.63;;;17.79;98.73
5350;BME280;2697;42.144;24.794;2023-03-22T11:48:51;157224.88;;;18.02;94.69
5350;BME280;2697;42.144;24.794;2023-03-22T11:53:55;157106.97;;;17.56;89.20
5350;BME280;2697;42.144;24.794;2023-03-22T11:56:27;157055.38;;;17.36;87.36
5350;BME280;2697;42.144;24.794;2023-03-22T11:59:21;157084.47;;;17.48;85.96
5350;BME280;2697;42.144;24.794;2023-03-22T12:04:26;156968.00;;;17.03;84.58
5350;BME280;2697;42.144;24.794;2023-03-22T12:06:58;157095.09;;;17.52;91.49
5350;BME280;2697;42.144;24.794;2023-03-22T12:09:40;157063.28;;;17.39;87.56
5350;BME280;2697;42.144;24.794;2023-03-22T12:12:11;157001.13;;;17.16;88.20
5350;BME280;2697;42.144;24.794;2023-03-22T12:15:06;156915.06;;;16.83;85.03
5350;BME280;2697;42.144;24.794;2023-03-22T12:18:05;156880.72;;;16.69;88.45
5350;BME280;2697;42.144;24.794;2023-03-22T12:20:51;156867.41;;;16.64;84.27
5350;BME280;2697;42.144;24.794;2023-03-22T12:23:21;156835.66;;;16.52;84.55
5350;BME280;2697;42.144;24.794;2023-03-22T12:28:41;156846.22;;;16.56;84.10
5350;BME280;2697;42.144;24.794;2023-03-22T12:31:15;156795.97;;;16.37;85.20
5350;BME280;2697;42.144;24.794;2023-03-22T12:33:50;156864.75;;;16.63;88.07
5350;BME280;2697;42.144;24.794;2023-03-22T12:36:20;156756.31;;;16.21;87.46
5350;BME280;2697;42.144;24.794;2023-03-22T12:38:53;156729.88;;;16.11;92.61
5350;BME280;2697;42.144;24.794;2023-03-22T12:41:39;156580.38;;;15.54;98.34
5350;BME280;2697;42.144;24.794;2023-03-22T12:44:21;156505.06;;;15.25;100.00
5350;BME280;2697;42.144;24.794;2023-03-22T12:46:55;156519.63;;;15.30;100.00
5350;BME280;2697;42.144;24.794;2023-03-22T12:49:45;156661.13;;;15.85;100.00
5350;BME280;2697;42.144;24.794;2023-03-22T12:52:14;156625.38;;;15.71;97.99
5350;BME280;2697;42.144;24.794;2023-03-22T12:54:42;156647.88;;;15.80;100.00
5350;BME280;2697;42.144;24.794;2023-03-22T12:57:08;156555.28;;;15.44;100.00
5350;BME280;2697;42.144;24.794;2023-03-22T12:59:35;156494.50;;;15.21;100.00
5350;BME280;2697;42.144;24.794;2023-03-22T13:02:15;156412.59;;;14.89;100.00
5350;BME280;2697;42.144;24.794;2023-03-22T13:09:48;156375.59;;;14.75;100.00
5350;BME280;2697;42.144;24.794;2023-03-22T13:25:12;156219.72;;;14.15;100.00
5350;BME280;2697;42.144;24.794;2023-03-22T13:30:26;156176.13;;;13.98;100.00
5350;BME280;2697;42.144;24.794;2023-03-22T13:32:56;156053.38;;;13.51;100.00
5350;BME280;2697;42.144;24.794;2023-03-22T13:38:22;155964.91;;;13.17;100.00
5350;BME280;2697;42.144;24.794;2023-03-22T13:40:51;155968.84;;;13.18;100.00
5350;BME280;2697;42.144;24.794;2023-03-22T13:43:26;155934.56;;;13.05;100.00
5350;BME280;2697;42.144;24.794;2023-03-22T13:48:40;155976.81;;;13.21;100.00
5350;BME280;2697;42.144;24.794;2023-03-22T13:51:32;155975.47;;;13.21;100.00
5350;BME280;2697;42.144;24.794;2023-03-22T13:56:53;155925.28;;;13.01;100.00
5350;BME280;2697;42.144;24.794;2023-03-22T14:04:37;131822.97;;;12.96;100.00
5350;BME280;2697;42.144;24.794;2023-03-22T14:07:22;122783.81;;;12.97;100.00
5350;BME280;2697;42.144;24.794;2023-03-22T14:09:51;143377.97;;;13.17;100.00
5350;BME280;2697;42.144;24.794;2023-03-22T14:12:24;155966.22;;;13.17;100.00
5350;BME280;2697;42.144;24.794;2023-03-22T14:14:58;155963.59;;;13.16;100.00
5350;BME280;2697;42.144;24.794;2023-03-22T14:17:58;155972.84;;;13.20;100.00
5350;BME280;2697;42.144;24.794;2023-03-22T14:20:28;156028.31;;;13.41;100.00
5350;BME280;2697;42.144;24.794;2023-03-22T14:22:59;156077.13;;;13.60;100.00
5350;BME280;2697;42.144;24.794;2023-03-22T14:25:29;156040.16;;;13.46;100.00
5350;BME280;2697;42.144;24.794;2023-03-22T14:27:56;156069.19;;;13.57;100.00
5350;BME280;2697;42.144;24.794;2023-03-22T14:33:04;156071.81;;;13.58;100.00
5350;BME280;2697;42.144;24.794;2023-03-22T14:35:34;156037.53;;;13.45;100.00
5350;BME280;2697;42.144;24.794;2023-03-22T14:38:15;156077.13;;;13.60;100.00
5350;BME280;2697;42.144;24.794;2023-03-22T14:40:42;156107.47;;;13.72;100.00
5350;BME280;2697;42.144;24.794;2023-03-22T14:45:39;143094.09;;;13.45;100.00
5350;BME280;2697;42.144;24.794;2023-03-22T14:48:34;112811.22;;;13.44;100.00
5350;BME280;2697;42.144;24.794;2023-03-22T14:51:01;90363.88;;;13.65;100.00
5350;BME280;2697;42.144;24.794;2023-03-22T14:53:31;75899.25;;;13.64;100.00
5350;BME280;2697;42.144;24.794;2023-03-22T14:55:58;69379.97;;;13.69;100.00
5350;BME280;2697;42.144;24.794;2023-03-22T14:58:31;78685.97;;;13.91;100.00
5350;BME280;2697;42.144;24.794;2023-03-22T15:01:10;68706.94;;;13.81;100.00